createdAt,value
2024-04-06T00:00:23.649Z,93.77
2024-04-06T00:01:23.638Z,94.69
2024-04-06T00:02:23.594Z,94.59
2024-04-06T00:03:26.098Z,94.69
2024-04-06T00:04:24.937Z,94.28
2024-04-06T00:05:23.593Z,94.28
2024-04-06T00:06:23.551Z,93.67
2024-04-06T00:07:23.545Z,93.57
2024-04-06T00:08:23.577Z,94.08
2024-04-06T00:09:23.583Z,94.59
2024-04-06T00:10:23.561Z,94.48
2024-04-06T00:11:23.533Z,94.74
2024-04-06T00:12:23.517Z,94.28
2024-04-06T00:13:23.495Z,94.08
2024-04-06T00:14:23.533Z,94.04
2024-04-06T00:15:23.491Z,93.22
2024-04-06T00:16:23.455Z,93.28
2024-04-06T00:17:23.526Z,92.87
2024-04-06T00:18:23.463Z,92.87
2024-04-06T00:19:23.447Z,92.77
2024-04-06T00:20:23.485Z,92.22
2024-04-06T00:21:23.407Z,92.32
2024-04-06T00:22:23.382Z,92.02
2024-04-06T00:23:23.390Z,92.22
2024-04-06T00:24:23.347Z,91.82
2024-04-06T00:25:23.387Z,91.71
2024-04-06T00:26:23.343Z,91.30
2024-04-06T00:27:23.377Z,91.47
2024-04-06T00:28:23.355Z,91.26
2024-04-06T00:29:23.372Z,91.36
2024-04-06T00:30:23.279Z,91.06
2024-04-06T00:31:23.285Z,91.47
2024-04-06T00:32:23.309Z,91.26
2024-04-06T00:33:23.271Z,91.36
2024-04-06T00:34:23.256Z,91.16
2024-04-06T00:35:23.309Z,91.06
2024-04-06T00:36:23.279Z,90.96
2024-04-06T00:37:23.236Z,90.66
2024-04-06T00:38:23.232Z,91.26
2024-04-06T00:39:23.172Z,91.26
2024-04-06T00:40:23.180Z,91.02
2024-04-06T00:41:23.195Z,91.12
2024-04-06T00:42:23.159Z,91.02
2024-04-06T00:43:23.145Z,90.71
2024-04-06T00:44:23.139Z,90.41
2024-04-06T00:45:23.139Z,90.31
2024-04-06T00:46:23.153Z,90.51
2024-04-06T00:47:23.099Z,90.61
2024-04-06T00:48:23.116Z,90.31
2024-04-06T00:49:23.047Z,90.31
2024-04-06T00:50:23.100Z,90.20
2024-04-06T00:51:23.097Z,89.70
2024-04-06T00:52:23.050Z,89.65
2024-04-06T00:53:23.023Z,89.76
2024-04-06T00:54:23.045Z,89.96
2024-04-06T00:55:23.033Z,89.96
2024-04-06T00:56:23.043Z,89.76
2024-04-06T00:57:22.997Z,89.65
2024-04-06T00:58:22.993Z,89.25
2024-04-06T00:59:23.014Z,89.76
2024-04-06T01:00:22.930Z,89.35
2024-04-06T01:01:24.417Z,89.55
2024-04-06T01:02:23.952Z,89.86
2024-04-06T01:03:22.899Z,89.35
2024-04-06T01:04:22.898Z,89.65
2024-04-06T01:05:22.916Z,89.35
2024-04-06T01:06:22.881Z,89.55
2024-04-06T01:07:22.872Z,89.25
2024-04-06T01:08:22.863Z,89.15
2024-04-06T01:09:22.836Z,89.25
2024-04-06T01:10:22.873Z,89.55
2024-04-06T01:11:22.862Z,89.35
2024-04-06T01:12:22.844Z,89.35
2024-04-06T01:13:22.822Z,89.76
2024-04-06T01:14:22.827Z,89.65
2024-04-06T01:15:22.794Z,89.65
2024-04-06T01:16:22.813Z,90.06
2024-04-06T01:17:22.805Z,90.26
2024-04-06T01:18:22.741Z,90.00
2024-04-06T01:19:22.722Z,90.26
2024-04-06T01:20:22.720Z,90.71
2024-04-06T01:21:22.736Z,90.77
2024-04-06T01:22:22.674Z,90.77
2024-04-06T01:23:22.688Z,90.77
2024-04-06T01:24:22.681Z,90.57
2024-04-06T01:25:22.685Z,90.77
2024-04-06T01:26:22.716Z,90.81
2024-04-06T01:27:22.652Z,91.12
2024-04-06T01:28:22.655Z,90.81
2024-04-06T01:29:23.197Z,90.67
2024-04-06T01:30:22.622Z,90.88
2024-04-06T01:31:22.603Z,90.61
2024-04-06T01:32:22.629Z,90.81
2024-04-06T01:33:22.572Z,90.77
2024-04-06T01:34:22.582Z,91.22
2024-04-06T01:35:22.638Z,91.42
2024-04-06T01:36:22.521Z,91.63
2024-04-06T01:37:22.547Z,92.07
2024-04-06T01:38:22.525Z,92.79
2024-04-06T01:39:22.553Z,92.83
2024-04-06T01:40:22.479Z,93.03
2024-04-06T01:41:22.525Z,93.03
2024-04-06T01:42:22.492Z,93.44
2024-04-06T01:43:22.473Z,93.74
2024-04-06T01:44:22.499Z,94.09
2024-04-06T01:45:22.452Z,93.95
2024-04-06T01:46:22.432Z,94.15
2024-04-06T01:47:22.571Z,93.95
2024-04-06T01:48:22.412Z,93.03
2024-04-06T01:49:22.384Z,93.44
2024-04-06T01:50:22.437Z,93.33
2024-04-06T01:51:22.357Z,93.33
2024-04-06T01:52:22.377Z,92.93
2024-04-06T01:53:22.392Z,93.33
2024-04-06T01:54:22.378Z,93.38
2024-04-06T01:55:22.337Z,93.44
2024-04-06T01:56:22.330Z,93.33
2024-04-06T01:57:22.298Z,94.05
2024-04-06T01:58:22.256Z,93.95
2024-04-06T01:59:22.341Z,93.79
2024-04-06T02:00:22.293Z,94.60
2024-04-06T02:01:22.246Z,94.29
2024-04-06T02:02:22.228Z,94.29
2024-04-06T02:03:22.248Z,94.50
2024-04-06T02:04:22.232Z,95.56
2024-04-06T02:05:22.214Z,95.51
2024-04-06T02:06:22.222Z,94.70
2024-04-06T02:07:22.166Z,95.21
2024-04-06T02:08:22.149Z,95.51
2024-04-06T02:09:22.164Z,95.41
2024-04-06T02:10:22.219Z,95.41
2024-04-06T02:11:22.112Z,95.62
2024-04-06T02:12:22.104Z,95.31
2024-04-06T02:13:22.102Z,95.36
2024-04-06T02:14:22.091Z,95.56
2024-04-06T02:15:22.116Z,95.76
2024-04-06T02:16:22.067Z,96.27
2024-04-06T02:17:22.054Z,96.58
2024-04-06T02:18:22.039Z,97.13
2024-04-06T02:19:22.057Z,97.53
2024-04-06T02:20:22.074Z,97.99
2024-04-06T02:21:22.062Z,98.09
2024-04-06T02:22:21.989Z,98.80
2024-04-06T02:23:22.003Z,98.75
2024-04-06T02:24:21.947Z,99.11
2024-04-06T02:25:21.965Z,99.56
2024-04-06T02:26:22.000Z,99.46
2024-04-06T02:27:21.963Z,99.77
2024-04-06T02:28:21.932Z,99.99
2024-04-06T02:29:22.941Z,99.99
2024-04-06T02:30:21.915Z,99.82
2024-04-06T02:31:21.893Z,99.31
2024-04-06T02:32:21.878Z,99.21
2024-04-06T02:33:21.865Z,99.31
2024-04-06T02:34:21.835Z,98.60
2024-04-06T02:35:21.860Z,98.19
2024-04-06T02:36:21.867Z,98.35
2024-04-06T02:37:21.844Z,98.35
2024-04-06T02:38:21.826Z,98.39
2024-04-06T02:39:21.818Z,98.50
2024-04-06T02:40:21.759Z,98.70
2024-04-06T02:41:21.801Z,98.50
2024-04-06T02:42:21.790Z,99.36
2024-04-06T02:43:21.712Z,99.56
2024-04-06T02:44:21.714Z,99.99
2024-04-06T02:45:21.745Z,99.99
2024-04-06T02:46:21.712Z,99.92
2024-04-06T02:47:21.716Z,99.57
2024-04-06T02:48:21.695Z,97.89
2024-04-06T02:49:21.675Z,96.98
2024-04-06T02:50:22.650Z,97.04
2024-04-06T02:51:21.612Z,96.88
2024-04-06T02:52:21.669Z,96.23
2024-04-06T02:53:21.640Z,96.12
2024-04-06T02:54:21.605Z,95.51
2024-04-06T02:55:21.595Z,95.82
2024-04-06T02:56:21.591Z,95.62
2024-04-06T02:57:21.554Z,95.10
2024-04-06T02:58:21.557Z,95.41
2024-04-06T02:59:21.559Z,95.10
2024-04-06T03:00:21.564Z,95.26
2024-04-06T03:01:21.506Z,94.56
2024-04-06T03:02:21.512Z,94.45
2024-04-06T03:03:21.585Z,94.56
2024-04-06T03:04:21.480Z,94.56
2024-04-06T03:05:21.502Z,94.35
2024-04-06T03:06:21.468Z,94.35
2024-04-06T03:07:21.485Z,94.35
2024-04-06T03:08:21.467Z,94.15
2024-04-06T03:09:21.469Z,94.25
2024-04-06T03:10:21.420Z,94.76
2024-04-06T03:11:21.415Z,94.66
2024-04-06T03:12:21.372Z,94.45
2024-04-06T03:13:21.386Z,94.21
2024-04-06T03:14:21.399Z,94.25
2024-04-06T03:15:21.341Z,94.25
2024-04-06T03:16:21.397Z,93.80
2024-04-06T03:17:21.342Z,93.70
2024-04-06T03:18:21.327Z,93.74
2024-04-06T03:19:21.314Z,94.05
2024-04-06T03:20:21.327Z,94.41
2024-04-06T03:21:21.318Z,94.21
2024-04-06T03:22:21.311Z,94.45
2024-04-06T03:23:21.273Z,94.45
2024-04-06T03:24:21.255Z,94.35
2024-04-06T03:25:21.266Z,94.31
2024-04-06T03:26:21.224Z,94.35
2024-04-06T03:27:21.218Z,94.35
2024-04-06T03:28:21.384Z,94.00
2024-04-06T03:29:22.175Z,94.31
2024-04-06T03:30:21.179Z,94.10
2024-04-06T03:31:21.172Z,94.10
2024-04-06T03:32:21.162Z,93.70
2024-04-06T03:33:21.134Z,93.70
2024-04-06T03:34:21.109Z,93.70
2024-04-06T03:35:21.120Z,93.70
2024-04-06T03:36:22.183Z,93.45
2024-04-06T03:37:21.089Z,93.60
2024-04-06T03:38:21.074Z,93.49
2024-04-06T03:39:21.089Z,94.10
2024-04-06T03:40:21.074Z,93.80
2024-04-06T03:41:21.049Z,94.21
2024-04-06T03:42:21.030Z,94.41
2024-04-06T03:43:21.017Z,94.82
2024-04-06T03:44:21.021Z,94.61
2024-04-06T03:45:21.000Z,95.53
2024-04-06T03:46:20.995Z,95.38
2024-04-06T03:47:20.970Z,95.53
2024-04-06T03:48:20.959Z,95.53
2024-04-06T03:49:20.967Z,94.82
2024-04-06T03:50:20.968Z,94.71
2024-04-06T03:51:20.941Z,95.22
2024-04-06T03:52:21.077Z,95.42
2024-04-06T03:53:20.946Z,95.53
2024-04-06T03:54:20.916Z,96.03
2024-04-06T03:55:20.906Z,96.14
2024-04-06T03:56:20.862Z,96.14
2024-04-06T03:57:20.899Z,95.94
2024-04-06T03:58:20.857Z,97.30
2024-04-06T03:59:20.810Z,97.15
2024-04-06T04:00:20.818Z,96.95
2024-04-06T04:01:20.842Z,97.05
2024-04-06T04:02:20.830Z,96.84
2024-04-06T04:03:20.814Z,96.84
2024-04-06T04:04:20.799Z,97.05
2024-04-06T04:05:20.771Z,96.95
2024-04-06T04:06:20.755Z,97.05
2024-04-06T04:07:20.743Z,96.95
2024-04-06T04:08:20.737Z,96.84
2024-04-06T04:09:20.752Z,97.05
2024-04-06T04:10:20.714Z,97.05
2024-04-06T04:11:20.681Z,97.25
2024-04-06T04:12:21.753Z,97.05
2024-04-06T04:13:20.961Z,97.35
2024-04-06T04:14:20.671Z,96.75
2024-04-06T04:15:20.637Z,96.23
2024-04-06T04:16:21.544Z,97.35
2024-04-06T04:17:20.616Z,96.99
2024-04-06T04:18:20.617Z,96.99
2024-04-06T04:19:20.668Z,97.20
2024-04-06T04:20:20.679Z,97.50
2024-04-06T04:21:20.592Z,97.20
2024-04-06T04:22:20.542Z,97.40
2024-04-06T04:23:21.557Z,97.80
2024-04-06T04:24:20.566Z,97.60
2024-04-06T04:25:20.544Z,97.91
2024-04-06T04:26:20.535Z,97.50
2024-04-06T04:27:20.528Z,97.91
2024-04-06T04:28:20.511Z,97.80
2024-04-06T04:29:20.479Z,97.71
2024-04-06T04:30:20.454Z,98.16
2024-04-06T04:31:20.454Z,98.26
2024-04-06T04:32:20.438Z,98.36
2024-04-06T04:33:20.841Z,98.26
2024-04-06T04:34:20.406Z,98.77
2024-04-06T04:35:20.437Z,99.38
2024-04-06T04:36:20.414Z,99.07
2024-04-06T04:37:20.401Z,99.68
2024-04-06T04:38:20.422Z,99.22
2024-04-06T04:39:20.362Z,99.42
2024-04-06T04:40:20.373Z,99.32
2024-04-06T04:41:20.333Z,99.52
2024-04-06T04:42:20.327Z,99.99
2024-04-06T04:43:20.359Z,99.73
2024-04-06T04:44:35.736Z,99.99
2024-04-06T04:45:22.347Z,99.99
2024-04-06T04:46:20.284Z,99.83
2024-04-06T04:47:20.314Z,99.42
2024-04-06T04:48:20.265Z,99.48
2024-04-06T04:49:20.284Z,99.52
2024-04-06T04:50:20.276Z,99.32
2024-04-06T04:51:20.217Z,99.52
2024-04-06T04:52:20.237Z,99.32
2024-04-06T04:53:20.199Z,99.93
2024-04-06T04:54:20.213Z,99.83
2024-04-06T04:55:20.773Z,99.52
2024-04-06T04:56:20.173Z,99.42
2024-04-06T04:57:20.149Z,99.22
2024-04-06T04:58:20.136Z,99.73
2024-04-06T04:59:20.139Z,99.42
2024-04-06T05:00:20.135Z,99.11
2024-04-06T05:01:20.108Z,99.63
2024-04-06T05:02:20.118Z,99.07
2024-04-06T05:03:20.101Z,99.38
2024-04-06T05:04:20.087Z,99.48
2024-04-06T05:05:20.073Z,98.36
2024-04-06T05:06:20.060Z,97.85
2024-04-06T05:07:20.049Z,97.80
2024-04-06T05:08:21.016Z,97.40
2024-04-06T05:09:20.001Z,96.95
2024-04-06T05:10:19.993Z,97.15
2024-04-06T05:11:20.069Z,95.94
2024-04-06T05:12:19.955Z,95.28
2024-04-06T05:13:19.972Z,95.48
2024-04-06T05:14:19.945Z,93.91
2024-04-06T05:15:19.958Z,93.97
2024-04-06T05:16:19.976Z,92.96
2024-04-06T05:17:19.951Z,92.00
2024-04-06T05:18:19.902Z,91.55
2024-04-06T05:19:19.987Z,90.64
2024-04-06T05:20:19.868Z,89.89
2024-04-06T05:21:19.906Z,89.45
2024-04-06T05:22:19.838Z,88.29
2024-04-06T05:23:19.857Z,87.54
2024-04-06T05:24:19.835Z,86.53
2024-04-06T05:25:19.831Z,86.22
2024-04-06T05:26:19.817Z,85.82
2024-04-06T05:27:19.802Z,86.27
2024-04-06T05:28:19.798Z,86.02
2024-04-06T05:29:19.777Z,86.07
2024-04-06T05:30:19.785Z,87.02
2024-04-06T05:31:19.730Z,87.12
2024-04-06T05:32:19.752Z,87.08
2024-04-06T05:33:19.803Z,86.22
2024-04-06T05:34:19.762Z,86.47
2024-04-06T05:35:19.712Z,86.91
2024-04-06T05:36:19.674Z,87.66
2024-04-06T05:37:19.670Z,88.27
2024-04-06T05:38:19.663Z,88.51
2024-04-06T05:39:19.700Z,89.12
2024-04-06T05:40:19.626Z,89.43
2024-04-06T05:41:19.626Z,89.57
2024-04-06T05:42:19.630Z,89.73
2024-04-06T05:43:19.613Z,88.53
2024-04-06T05:44:19.606Z,87.10
2024-04-06T05:45:19.631Z,85.30
2024-04-06T05:46:19.575Z,83.20
2024-04-06T05:47:19.582Z,81.75
2024-04-06T05:48:19.572Z,81.55
2024-04-06T05:49:19.527Z,81.68
2024-04-06T05:50:19.544Z,82.47
2024-04-06T05:51:19.531Z,83.32
2024-04-06T05:52:19.804Z,84.91
2024-04-06T05:53:19.512Z,85.22
2024-04-06T05:54:19.543Z,86.37
2024-04-06T05:55:19.509Z,86.07
2024-04-06T05:56:19.447Z,86.67
2024-04-06T05:57:19.463Z,86.82
2024-04-06T05:58:19.446Z,87.12
2024-04-06T05:59:19.435Z,87.12
2024-04-06T06:00:19.443Z,87.32
2024-04-06T06:01:19.443Z,87.52
2024-04-06T06:02:19.414Z,87.42
2024-04-06T06:03:19.416Z,87.46
2024-04-06T06:04:19.411Z,88.07
2024-04-06T06:05:19.363Z,88.42
2024-04-06T06:06:19.389Z,88.62
2024-04-06T06:07:19.394Z,88.42
2024-04-06T06:08:19.342Z,88.62
2024-04-06T06:09:19.308Z,89.02
2024-04-06T06:10:19.300Z,88.82
2024-04-06T06:11:19.291Z,88.92
2024-04-06T06:12:19.380Z,89.43
2024-04-06T06:13:19.269Z,89.02
2024-04-06T06:14:21.823Z,89.23
2024-04-06T06:15:20.299Z,89.12
2024-04-06T06:16:20.107Z,88.92
2024-04-06T06:17:19.274Z,89.23
2024-04-06T06:18:19.237Z,89.23
2024-04-06T06:19:19.227Z,89.02
2024-04-06T06:20:19.205Z,89.23
2024-04-06T06:21:19.185Z,89.32
2024-04-06T06:22:19.184Z,89.43
2024-04-06T06:23:19.167Z,89.12
2024-04-06T06:24:19.136Z,88.82
2024-04-06T06:25:20.238Z,88.48
2024-04-06T06:26:19.154Z,88.48
2024-04-06T06:27:19.123Z,88.25
2024-04-06T06:28:19.124Z,85.66
2024-04-06T06:29:19.119Z,82.18
2024-04-06T06:30:19.103Z,78.80
2024-04-06T06:31:19.138Z,76.28
2024-04-06T06:32:19.086Z,73.67
2024-04-06T06:33:19.101Z,71.73
2024-04-06T06:34:19.094Z,70.06
2024-04-06T06:35:19.038Z,68.76
2024-04-06T06:38:20.028Z,68.32
2024-04-06T06:41:20.608Z,68.02
2024-04-06T06:42:18.991Z,67.22
2024-04-06T06:43:18.974Z,67.52
2024-04-06T06:44:18.961Z,67.49
2024-04-06T06:45:18.942Z,66.86
2024-04-06T06:46:18.940Z,67.56
2024-04-06T06:47:18.946Z,66.36
2024-04-06T06:48:18.883Z,65.13
2024-04-06T06:49:18.894Z,66.29
2024-04-06T06:50:18.901Z,65.96
2024-04-06T06:51:18.937Z,65.76
2024-04-06T06:52:18.878Z,65.63
2024-04-06T06:53:18.852Z,64.77
2024-04-06T06:54:18.828Z,64.47
2024-04-06T06:55:18.867Z,62.64
2024-04-06T06:56:18.816Z,63.67
2024-04-06T06:57:18.831Z,63.57
2024-04-06T06:58:18.802Z,63.97
2024-04-06T06:59:18.897Z,63.17
2024-04-06T07:00:20.534Z,63.54
2024-04-06T07:01:19.754Z,63.24
2024-04-06T07:02:18.771Z,61.99
2024-04-06T07:03:18.752Z,61.13
2024-04-06T07:04:18.770Z,61.03
2024-04-06T07:05:18.756Z,60.93
2024-04-06T07:07:06.685Z,60.00
2024-04-06T07:07:20.726Z,60.00
2024-04-06T07:08:18.728Z,59.53
2024-04-06T07:09:18.703Z,59.34
2024-04-06T07:10:18.731Z,60.33
2024-04-06T07:11:18.728Z,59.11
2024-04-06T07:12:18.657Z,60.50
2024-04-06T07:13:18.662Z,59.56
2024-04-06T07:14:18.622Z,59.86
2024-04-06T07:15:18.631Z,59.70
2024-04-06T07:16:18.585Z,59.25
2024-04-06T07:17:18.576Z,59.05
2024-04-06T07:18:18.600Z,59.70
2024-04-06T07:19:18.573Z,60.24
2024-04-06T07:20:18.551Z,60.26
2024-04-06T07:21:18.580Z,60.66
2024-04-06T07:22:18.549Z,60.59
2024-04-06T07:23:18.508Z,61.02
2024-04-06T07:24:18.503Z,60.12
2024-04-06T07:25:18.500Z,60.56
2024-04-06T07:26:18.485Z,60.03
2024-04-06T07:27:18.482Z,59.72
2024-04-06T07:28:18.494Z,61.80
2024-04-06T07:29:18.462Z,64.99
2024-04-06T07:30:18.447Z,63.43
2024-04-06T07:31:18.473Z,65.62
2024-04-06T07:32:18.441Z,64.66
2024-04-06T07:33:18.430Z,66.19
2024-04-06T07:34:18.397Z,67.02
2024-04-06T07:35:18.376Z,68.19
2024-04-06T07:36:18.427Z,69.76
2024-04-06T07:37:18.422Z,70.83
2024-04-06T07:38:20.617Z,71.70
2024-04-06T07:39:20.174Z,71.26
2024-04-06T07:40:20.710Z,70.53
2024-04-06T07:41:18.350Z,68.15
2024-04-06T07:42:18.377Z,69.56
2024-04-06T07:43:18.352Z,69.56
2024-04-06T07:44:18.324Z,69.92
2024-04-06T07:45:18.309Z,69.42
2024-04-06T07:46:18.336Z,69.16
2024-04-06T07:47:18.269Z,67.99
2024-04-06T07:48:18.322Z,65.55
2024-04-06T07:49:18.264Z,66.15
2024-04-06T07:50:18.242Z,67.85
2024-04-06T07:51:18.211Z,67.79
2024-04-06T07:52:18.223Z,67.35
2024-04-06T07:53:18.211Z,69.49
2024-04-06T07:54:18.223Z,69.82
2024-04-06T07:55:18.181Z,70.89
2024-04-06T07:56:18.164Z,71.97
2024-04-06T07:57:18.140Z,70.93
2024-04-06T07:58:18.188Z,71.30
2024-04-06T07:59:18.137Z,68.79
2024-04-06T08:00:18.152Z,65.45
2024-04-06T08:01:18.140Z,63.56
2024-04-06T08:02:18.100Z,60.17
2024-04-06T08:03:18.130Z,59.39
2024-04-06T08:04:18.101Z,58.14
2024-04-06T08:05:18.089Z,56.89
2024-04-06T08:06:18.208Z,57.02
2024-04-06T08:07:18.103Z,57.75
2024-04-06T08:08:18.104Z,57.92
2024-04-06T08:09:18.024Z,58.06
2024-04-06T08:10:19.058Z,60.09
2024-04-06T08:11:18.027Z,58.81
2024-04-06T08:12:18.025Z,57.45
2024-04-06T08:13:18.018Z,60.19
2024-04-06T08:14:25.029Z,58.51
2024-04-06T08:15:18.982Z,56.59
2024-04-06T08:16:18.974Z,58.11
2024-04-06T08:17:17.934Z,58.11
2024-04-06T08:18:17.989Z,58.14
2024-04-06T08:19:17.936Z,58.31
2024-04-06T08:20:17.962Z,55.94
2024-04-06T08:21:17.910Z,56.47
2024-04-06T08:22:17.887Z,57.82
2024-04-06T08:23:17.903Z,56.57
2024-04-06T08:24:17.862Z,55.72
2024-04-06T08:25:17.915Z,55.22
2024-04-06T08:26:17.867Z,53.68
2024-04-06T08:27:17.918Z,51.37
2024-04-06T08:28:17.972Z,51.62
2024-04-06T08:29:17.919Z,51.52
2024-04-06T08:30:17.912Z,51.54
2024-04-06T08:31:17.859Z,51.60
2024-04-06T08:32:17.838Z,53.48
2024-04-06T08:33:17.783Z,51.54
2024-04-06T08:34:17.843Z,53.11
2024-04-06T08:35:18.048Z,53.76
2024-04-06T08:36:18.110Z,54.53
2024-04-06T08:37:18.059Z,57.71
2024-04-06T08:38:17.764Z,55.93
2024-04-06T08:39:17.838Z,55.67
2024-04-06T08:40:17.785Z,54.72
2024-04-06T08:41:17.800Z,53.81
2024-04-06T08:42:17.743Z,57.10
2024-04-06T08:43:17.764Z,57.62
2024-04-06T08:44:17.724Z,54.65
2024-04-06T08:45:17.783Z,53.88
2024-04-06T08:46:17.679Z,54.88
2024-04-06T08:47:17.731Z,55.26
2024-04-06T08:48:17.722Z,55.00
2024-04-06T08:49:17.759Z,53.91
2024-04-06T08:50:17.641Z,56.03
2024-04-06T08:51:17.663Z,59.34
2024-04-06T08:52:17.775Z,59.38
2024-04-06T08:53:17.595Z,60.46
2024-04-06T08:54:17.794Z,61.24
2024-04-06T08:55:17.658Z,57.97
2024-04-06T08:56:17.536Z,55.05
2024-04-06T08:57:17.792Z,54.06
2024-04-06T08:58:17.631Z,53.91
2024-04-06T08:59:17.614Z,52.17
2024-04-06T09:00:17.654Z,53.41
2024-04-06T09:01:17.589Z,54.78
2024-04-06T09:02:17.615Z,56.27
2024-04-06T09:03:17.516Z,56.42
2024-04-06T09:04:17.548Z,56.42
2024-04-06T09:05:17.453Z,55.63
2024-04-06T09:06:17.740Z,55.47
2024-04-06T09:07:17.502Z,55.22
2024-04-06T09:08:18.054Z,52.96
2024-04-06T09:09:17.557Z,53.74
2024-04-06T09:10:17.449Z,55.63
2024-04-06T09:11:17.817Z,55.16
2024-04-06T09:12:17.415Z,56.57
2024-04-06T09:13:18.136Z,59.34
2024-04-06T09:14:17.396Z,59.34
2024-04-06T09:15:17.563Z,58.41
2024-04-06T09:16:17.411Z,59.74
2024-04-06T09:17:17.369Z,59.61
2024-04-06T09:18:17.429Z,59.45
2024-04-06T09:19:17.441Z,57.65
2024-04-06T09:20:17.300Z,58.71
2024-04-06T09:21:17.350Z,59.99
2024-04-06T09:22:17.447Z,60.77
2024-04-06T09:23:17.360Z,60.03
2024-04-06T09:24:17.862Z,59.77
2024-04-06T09:25:17.439Z,61.35
2024-04-06T09:26:17.243Z,62.35
2024-04-06T09:27:17.294Z,62.65
2024-04-06T09:28:17.431Z,61.31
2024-04-06T09:29:17.258Z,62.51
2024-04-06T09:30:17.482Z,62.58
2024-04-06T09:31:17.238Z,62.59
2024-04-06T09:32:17.229Z,59.25
2024-04-06T09:33:17.238Z,57.86
2024-04-06T09:34:17.227Z,58.71
2024-04-06T09:35:17.150Z,59.11
2024-04-06T09:36:17.206Z,59.81
2024-04-06T09:37:17.381Z,59.91
2024-04-06T09:38:17.167Z,59.21
2024-04-06T09:39:17.139Z,58.78
2024-04-06T09:40:17.208Z,56.01
2024-04-06T09:41:17.338Z,57.42
2024-04-06T09:42:17.100Z,54.13
2024-04-06T09:43:17.119Z,55.58
2024-04-06T09:44:17.067Z,56.38
2024-04-06T09:45:17.049Z,56.85
2024-04-06T09:46:17.127Z,53.81
2024-04-06T09:47:17.087Z,53.66
2024-04-06T09:48:17.028Z,51.62
2024-04-06T09:49:17.138Z,51.72
2024-04-06T09:50:18.060Z,51.70
2024-04-06T09:51:17.053Z,51.95
2024-04-06T09:52:17.081Z,51.70
2024-04-06T09:53:16.982Z,56.16
2024-04-06T09:54:16.993Z,56.42
2024-04-06T09:55:17.092Z,53.76
2024-04-06T09:56:17.060Z,53.78
2024-04-06T09:57:16.982Z,52.07
2024-04-06T09:58:17.058Z,51.47
2024-04-06T09:59:16.902Z,51.35
2024-04-06T10:00:16.960Z,51.28
2024-04-06T10:01:16.943Z,49.81
2024-04-06T10:02:16.947Z,50.88
2024-04-06T10:03:16.942Z,50.51
2024-04-06T10:04:16.903Z,52.49
2024-04-06T10:05:16.840Z,51.47
2024-04-06T10:06:16.874Z,50.51
2024-04-06T10:07:16.872Z,50.26
2024-04-06T10:08:16.890Z,51.32
2024-04-06T10:09:16.844Z,49.96
2024-04-06T10:10:16.952Z,48.43
2024-04-06T10:11:16.793Z,48.11
2024-04-06T10:12:16.771Z,48.65
2024-04-06T10:13:16.851Z,48.38
2024-04-06T10:14:19.316Z,47.89
2024-04-06T10:15:17.821Z,48.70
2024-04-06T10:16:16.791Z,48.36
2024-04-06T10:17:16.761Z,48.08
2024-04-06T10:18:16.727Z,48.72
2024-04-06T10:19:16.755Z,50.71
2024-04-06T10:20:16.706Z,49.15
2024-04-06T10:21:16.675Z,48.03
2024-04-06T10:22:16.786Z,48.11
2024-04-06T10:23:16.682Z,46.73
2024-04-06T10:24:16.672Z,48.43
2024-04-06T10:25:16.742Z,47.07
2024-04-06T10:26:16.680Z,47.19
2024-04-06T10:27:16.684Z,48.21
2024-04-06T10:28:16.687Z,48.15
2024-04-06T10:29:17.164Z,48.63
2024-04-06T10:30:16.622Z,48.85
2024-04-06T10:31:16.645Z,49.15
2024-04-06T10:32:16.636Z,48.63
2024-04-06T10:33:16.635Z,47.26
2024-04-06T10:34:16.628Z,48.15
2024-04-06T10:35:16.611Z,47.36
2024-04-06T10:36:16.545Z,48.05
2024-04-06T10:37:16.585Z,48.72
2024-04-06T10:38:16.524Z,48.62
2024-04-06T10:39:16.635Z,48.99
2024-04-06T10:40:16.546Z,49.66
2024-04-06T10:41:16.674Z,47.93
2024-04-06T10:42:16.481Z,46.92
2024-04-06T10:43:16.481Z,47.02
2024-04-06T10:44:16.453Z,46.70
2024-04-06T10:45:16.466Z,47.31
2024-04-06T10:46:16.477Z,47.61
2024-04-06T10:47:16.570Z,46.77
2024-04-06T10:48:16.433Z,48.67
2024-04-06T10:49:16.449Z,48.97
2024-04-06T10:50:16.391Z,49.05
2024-04-06T10:51:16.493Z,48.80
2024-04-06T10:52:16.578Z,48.47
2024-04-06T10:53:16.389Z,48.85
2024-04-06T10:54:16.460Z,48.72
2024-04-06T10:55:16.467Z,49.02
2024-04-06T10:56:16.371Z,48.08
2024-04-06T10:57:16.386Z,47.31
2024-04-06T10:58:16.377Z,48.18
2024-04-06T10:59:16.488Z,47.28
2024-04-06T11:00:16.286Z,46.98
2024-04-06T11:01:16.296Z,46.57
2024-04-06T11:02:16.287Z,46.97
2024-04-06T11:03:16.317Z,44.67
2024-04-06T11:04:16.334Z,45.75
2024-04-06T11:05:16.240Z,46.89
2024-04-06T11:06:16.249Z,47.09
2024-04-06T11:07:16.263Z,46.97
2024-04-06T11:08:16.265Z,48.57
2024-04-06T11:09:16.212Z,46.94
2024-04-06T11:10:16.255Z,46.20
2024-04-06T11:11:16.265Z,46.18
2024-04-06T11:12:16.273Z,45.49
2024-04-06T11:13:16.230Z,46.88
2024-04-06T11:14:16.255Z,44.48
2024-04-06T11:15:16.200Z,45.00
2024-04-06T11:16:16.212Z,44.87
2024-04-06T11:17:16.123Z,43.53
2024-04-06T11:18:16.127Z,43.73
2024-04-06T11:19:16.094Z,43.31
2024-04-06T11:20:16.100Z,43.65
2024-04-06T11:21:16.074Z,43.57
2024-04-06T11:22:17.098Z,45.18
2024-04-06T11:23:16.116Z,45.84
2024-04-06T11:24:16.066Z,46.04
2024-04-06T11:25:16.071Z,46.00
2024-04-06T11:26:16.046Z,44.76
2024-04-06T11:27:16.055Z,44.74
2024-04-06T11:28:16.079Z,44.62
2024-04-06T11:29:16.008Z,43.24
2024-04-06T11:30:16.000Z,43.53
2024-04-06T11:31:16.055Z,43.71
2024-04-06T11:32:16.004Z,44.40
2024-04-06T11:33:15.997Z,44.28
2024-04-06T11:34:16.029Z,43.63
2024-04-06T11:35:15.990Z,44.54
2024-04-06T11:36:15.976Z,44.51
2024-04-06T11:37:15.956Z,46.50
2024-04-06T11:38:16.014Z,49.13
2024-04-06T11:39:16.013Z,47.52
2024-04-06T11:40:15.989Z,47.64
2024-04-06T11:41:15.865Z,48.29
2024-04-06T11:42:15.969Z,46.98
2024-04-06T11:43:15.905Z,46.88
2024-04-06T11:44:15.899Z,46.06
2024-04-06T11:45:15.872Z,44.53
2024-04-06T11:46:15.853Z,45.57
2024-04-06T11:47:15.937Z,46.03
2024-04-06T11:48:15.900Z,44.59
2024-04-06T11:49:15.903Z,46.30
2024-04-06T11:50:15.793Z,44.01
2024-04-06T11:51:15.849Z,44.75
2024-04-06T11:52:15.779Z,44.67
2024-04-06T11:53:15.813Z,46.08
2024-04-06T11:54:15.803Z,44.89
2024-04-06T11:55:15.781Z,46.28
2024-04-06T11:56:15.751Z,44.37
2024-04-06T11:57:15.717Z,44.89
2024-04-06T11:58:15.731Z,44.70
2024-04-06T11:59:15.775Z,46.06
2024-04-06T12:00:17.459Z,47.53
2024-04-06T12:01:15.727Z,44.89
2024-04-06T12:02:15.668Z,44.43
2024-04-06T12:03:15.711Z,45.12
2024-04-06T12:04:15.700Z,46.69
2024-04-06T12:05:15.662Z,45.94
2024-04-06T12:06:15.626Z,45.10
2024-04-06T12:07:15.705Z,47.33
2024-04-06T12:08:15.683Z,46.27
2024-04-06T12:09:15.604Z,43.65
2024-04-06T12:10:16.693Z,43.51
2024-04-06T12:11:15.674Z,41.99
2024-04-06T12:12:15.582Z,42.36
2024-04-06T12:13:15.539Z,40.58
2024-04-06T12:14:15.598Z,40.58
2024-04-06T12:15:15.602Z,40.09
2024-04-06T12:16:15.614Z,41.10
2024-04-06T12:17:15.529Z,41.99
2024-04-06T12:18:15.507Z,40.61
2024-04-06T12:19:15.520Z,41.99
2024-04-06T12:20:15.503Z,40.64
2024-04-06T12:21:15.478Z,41.83
2024-04-06T12:22:15.522Z,41.52
2024-04-06T12:23:16.465Z,41.79
2024-04-06T12:24:15.446Z,41.10
2024-04-06T12:25:15.490Z,43.52
2024-04-06T12:26:15.437Z,44.93
2024-04-06T12:27:15.434Z,45.12
2024-04-06T12:28:15.552Z,44.71
2024-04-06T12:29:15.370Z,44.81
2024-04-06T12:30:15.406Z,45.08
2024-04-06T12:31:15.404Z,45.20
2024-04-06T12:32:15.384Z,44.27
2024-04-06T12:33:15.343Z,43.38
2024-04-06T12:34:15.368Z,44.75
2024-04-06T12:35:15.375Z,44.85
2024-04-06T12:36:15.322Z,44.63
2024-04-06T12:37:15.362Z,43.66
2024-04-06T12:38:16.033Z,44.35
2024-04-06T12:39:15.312Z,46.20
2024-04-06T12:40:15.308Z,47.62
2024-04-06T12:41:15.269Z,45.51
2024-04-06T12:42:15.260Z,44.81
2024-04-06T12:43:15.324Z,46.41
2024-04-06T12:44:15.548Z,44.62
2024-04-06T12:45:15.215Z,46.33
2024-04-06T12:46:15.286Z,47.22
2024-04-06T12:47:16.200Z,45.90
2024-04-06T12:48:15.200Z,46.31
2024-04-06T12:49:15.246Z,46.41
2024-04-06T12:50:15.182Z,46.70
2024-04-06T12:51:15.201Z,46.19
2024-04-06T12:52:15.218Z,46.28
2024-04-06T12:53:15.156Z,44.79
2024-04-06T12:54:15.187Z,46.08
2024-04-06T12:55:15.196Z,46.28
2024-04-06T12:56:15.142Z,45.90